createdAt,value
2018-04-17T00:00:19.955Z,9.61
2018-04-17T00:01:20.193Z,9.65
2018-04-17T00:02:20.433Z,9.65
2018-04-17T00:03:20.675Z,9.68
2018-04-17T00:04:20.914Z,9.91
2018-04-17T00:05:21.155Z,9.99
2018-04-17T00:06:21.411Z,10.02
2018-04-17T00:07:21.639Z,10.17
2018-04-17T00:08:21.876Z,10.18
2018-04-17T00:09:22.118Z,10.11
2018-04-17T00:10:22.367Z,10.04
2018-04-17T00:11:22.597Z,10.17
2018-04-17T00:12:22.836Z,10.20
2018-04-17T00:13:23.076Z,10.18
2018-04-17T00:14:23.316Z,10.14
2018-04-17T00:15:23.557Z,10.22
2018-04-17T00:16:23.797Z,10.33
2018-04-17T00:17:24.038Z,10.40
2018-04-17T00:18:24.277Z,10.42
2018-04-17T00:19:24.517Z,10.41
2018-04-17T00:20:24.756Z,10.23
2018-04-17T00:21:24.996Z,10.14
2018-04-17T00:22:25.237Z,9.99
2018-04-17T00:23:25.478Z,9.93
2018-04-17T00:24:25.720Z,9.89
2018-04-17T00:25:25.959Z,9.71
2018-04-17T00:26:26.200Z,9.68
2018-04-17T00:27:26.439Z,9.61
2018-04-17T00:28:26.680Z,9.48
2018-04-17T00:29:26.923Z,9.47
2018-04-17T00:30:27.160Z,9.42
2018-04-17T00:31:27.400Z,9.29
2018-04-17T00:32:27.676Z,9.17
2018-04-17T00:33:27.881Z,9.08
2018-04-17T00:34:28.122Z,8.98
2018-04-17T00:35:28.363Z,8.94
2018-04-17T00:36:28.602Z,8.99
2018-04-17T00:37:28.846Z,8.92
2018-04-17T00:38:29.083Z,8.92
2018-04-17T00:39:29.327Z,8.83
2018-04-17T00:40:29.564Z,8.89
2018-04-17T00:41:29.805Z,8.89
2018-04-17T00:42:30.045Z,8.87
2018-04-17T00:43:30.285Z,9.10
2018-04-17T00:44:30.526Z,9.01
2018-04-17T00:45:30.766Z,8.89
2018-04-17T00:46:31.006Z,8.91
2018-04-17T00:47:31.248Z,8.94
2018-04-17T00:48:31.487Z,8.89
2018-04-17T00:49:31.728Z,8.89
2018-04-17T00:50:31.967Z,8.86
2018-04-17T00:51:32.209Z,8.77
2018-04-17T00:52:32.448Z,8.77
2018-04-17T00:53:32.688Z,8.76
2018-04-17T00:54:32.917Z,8.76
2018-04-17T00:55:33.157Z,8.76
2018-04-17T00:56:33.398Z,8.79
2018-04-17T00:57:33.639Z,8.74
2018-04-17T00:58:33.879Z,8.71
2018-04-17T00:59:34.120Z,8.86
2018-04-17T01:00:34.358Z,8.71
2018-04-17T01:01:34.606Z,8.80
2018-04-17T01:02:34.843Z,8.76
2018-04-17T01:03:35.085Z,8.87
2018-04-17T01:04:35.324Z,8.79
2018-04-17T01:05:35.565Z,8.83
2018-04-17T01:06:35.814Z,8.81
2018-04-17T01:07:36.048Z,8.84
2018-04-17T01:08:36.287Z,8.94
2018-04-17T01:09:36.528Z,8.89
2018-04-17T01:10:36.770Z,8.87
2018-04-17T01:11:37.008Z,8.79
2018-04-17T01:12:37.250Z,8.89
2018-04-17T01:13:37.492Z,8.89
2018-04-17T01:14:37.733Z,8.91
2018-04-17T01:15:37.973Z,8.91
2018-04-17T01:16:38.216Z,8.92
2018-04-17T01:17:38.456Z,8.94
2018-04-17T01:18:38.696Z,8.99
2018-04-17T01:19:38.938Z,8.94
2018-04-17T01:20:39.179Z,9.02
2018-04-17T01:21:39.421Z,9.05
2018-04-17T01:22:39.662Z,9.05
2018-04-17T01:23:39.904Z,9.05
2018-04-17T01:24:40.145Z,9.18
2018-04-17T01:25:40.387Z,9.08
2018-04-17T01:26:40.627Z,9.26
2018-04-17T01:27:40.864Z,9.13
2018-04-17T01:28:41.106Z,9.24
2018-04-17T01:29:41.344Z,9.20
2018-04-17T01:30:41.584Z,9.15
2018-04-17T01:31:41.829Z,9.18
2018-04-17T01:32:42.071Z,9.18
2018-04-17T01:33:42.311Z,9.15
2018-04-17T01:34:42.553Z,9.18
2018-04-17T01:35:42.796Z,9.28
2018-04-17T01:36:43.037Z,9.15
2018-04-17T01:37:43.277Z,9.08
2018-04-17T01:38:43.518Z,9.20
2018-04-17T01:39:43.758Z,9.18
2018-04-17T01:40:44.003Z,9.05
2018-04-17T01:41:44.245Z,9.11
2018-04-17T01:42:44.487Z,9.18
2018-04-17T01:43:44.729Z,9.23
2018-04-17T01:44:44.969Z,9.23
2018-04-17T01:45:45.213Z,9.20
2018-04-17T01:46:45.453Z,9.10
2018-04-17T01:47:45.694Z,9.17
2018-04-17T01:48:45.936Z,9.18
2018-04-17T01:49:46.174Z,9.13
2018-04-17T01:50:46.418Z,9.20
2018-04-17T01:51:46.657Z,9.20
2018-04-17T01:52:46.900Z,9.14
2018-04-17T01:53:47.139Z,9.14
2018-04-17T01:54:47.382Z,9.17
2018-04-17T01:55:47.623Z,9.23
2018-04-17T01:56:47.864Z,8.99
2018-04-17T01:57:48.105Z,8.95
2018-04-17T01:58:48.340Z,9.01
2018-04-17T01:59:48.585Z,8.87
2018-04-17T02:00:48.824Z,8.73
2018-04-17T02:01:49.062Z,8.63
2018-04-17T02:02:49.300Z,8.55
2018-04-17T02:03:49.542Z,8.56
2018-04-17T02:04:49.781Z,8.59
2018-04-17T02:05:50.022Z,8.61
2018-04-17T02:06:50.261Z,8.59
2018-04-17T02:07:50.501Z,8.66
2018-04-17T02:08:50.743Z,8.63
2018-04-17T02:09:50.986Z,8.77
2018-04-17T02:10:51.224Z,8.74
2018-04-17T02:11:51.462Z,8.87
2018-04-17T02:12:51.704Z,8.89
2018-04-17T02:13:51.948Z,8.86
2018-04-17T02:14:52.184Z,8.80
2018-04-17T02:15:52.427Z,8.79
2018-04-17T02:16:52.666Z,8.79
2018-04-17T02:17:52.908Z,8.80
2018-04-17T02:18:53.150Z,8.91
2018-04-17T02:19:53.387Z,8.86
2018-04-17T02:20:53.627Z,8.81
2018-04-17T02:21:53.867Z,8.98
2018-04-17T02:22:54.109Z,8.95
2018-04-17T02:23:54.349Z,9.02
2018-04-17T02:24:54.596Z,8.98
2018-04-17T02:25:54.829Z,9.01
2018-04-17T02:26:55.070Z,8.95
2018-04-17T02:27:55.365Z,8.98
2018-04-17T02:28:55.544Z,9.01
2018-04-17T02:29:55.783Z,9.01
2018-04-17T02:30:56.025Z,8.96
2018-04-17T02:31:56.267Z,8.95
2018-04-17T02:32:56.505Z,8.84
2018-04-17T02:33:56.747Z,8.87
2018-04-17T02:34:56.985Z,8.81
2018-04-17T02:35:57.223Z,8.81
2018-04-17T02:36:57.468Z,8.74
2018-04-17T02:37:57.701Z,8.79
2018-04-17T02:38:57.944Z,8.65
2018-04-17T02:39:58.180Z,8.59
2018-04-17T02:40:58.420Z,8.61
2018-04-17T02:41:58.659Z,8.56
2018-04-17T02:42:58.904Z,8.55
2018-04-17T02:43:59.140Z,8.52
2018-04-17T02:44:59.379Z,8.70
2018-04-17T02:45:59.617Z,8.66
2018-04-17T02:46:59.856Z,8.84
2018-04-17T02:48:00.097Z,8.77
2018-04-17T02:49:00.337Z,8.80
2018-04-17T02:50:00.576Z,8.80
2018-04-17T02:51:00.818Z,8.86
2018-04-17T02:52:01.065Z,8.92
2018-04-17T02:53:01.295Z,8.96
2018-04-17T02:54:01.535Z,9.04
2018-04-17T02:55:01.770Z,8.92
2018-04-17T02:56:02.034Z,8.94
2018-04-17T02:57:02.271Z,8.96
2018-04-17T02:58:02.488Z,8.92
2018-04-17T02:59:02.730Z,8.81
2018-04-17T03:00:02.971Z,8.87
2018-04-17T03:01:03.213Z,8.80
2018-04-17T03:02:03.455Z,8.74
2018-04-17T03:03:03.693Z,8.71
2018-04-17T03:04:03.936Z,8.66
2018-04-17T03:05:04.173Z,8.61
2018-04-17T03:06:04.413Z,8.58
2018-04-17T03:07:04.659Z,8.58
2018-04-17T03:08:04.908Z,8.53
2018-04-17T03:09:05.139Z,8.47
2018-04-17T03:10:05.378Z,8.48
2018-04-17T03:11:05.620Z,8.40
2018-04-17T03:12:05.865Z,8.38
2018-04-17T03:13:06.107Z,8.38
2018-04-17T03:14:06.353Z,8.40
2018-04-17T03:15:06.594Z,8.38
2018-04-17T03:16:06.834Z,8.44
2018-04-17T03:17:07.077Z,8.43
2018-04-17T03:18:07.322Z,8.43
2018-04-17T03:19:07.557Z,8.37
2018-04-17T03:20:07.799Z,8.34
2018-04-17T03:21:08.040Z,8.29
2018-04-17T03:22:08.279Z,8.30
2018-04-17T03:23:08.522Z,8.37
2018-04-17T03:24:08.758Z,8.30
2018-04-17T03:25:09.002Z,8.30
2018-04-17T03:26:09.241Z,8.34
2018-04-17T03:27:09.483Z,8.43
2018-04-17T03:28:09.722Z,8.38
2018-04-17T03:29:09.964Z,8.37
2018-04-17T03:30:10.205Z,8.37
2018-04-17T03:31:10.445Z,8.38
2018-04-17T03:32:10.683Z,8.38
2018-04-17T03:33:10.924Z,8.38
2018-04-17T03:34:11.164Z,8.41
2018-04-17T03:35:11.413Z,8.45
2018-04-17T03:36:11.645Z,8.45
2018-04-17T03:37:11.887Z,8.52
2018-04-17T03:38:12.123Z,8.50
2018-04-17T03:39:12.362Z,8.55
2018-04-17T03:40:12.603Z,8.52
2018-04-17T03:41:12.847Z,8.44
2018-04-17T03:42:13.085Z,8.47
2018-04-17T03:43:13.326Z,8.44
2018-04-17T03:44:13.565Z,8.45
2018-04-17T03:45:13.807Z,8.41
2018-04-17T03:46:14.061Z,8.41
2018-04-17T03:47:14.289Z,8.41
2018-04-17T03:48:14.528Z,8.40
2018-04-17T03:49:14.770Z,8.40
2018-04-17T03:50:15.010Z,8.44
2018-04-17T03:51:15.251Z,8.50
2018-04-17T03:52:15.493Z,8.52
2018-04-17T03:53:15.733Z,8.47
2018-04-17T03:54:15.977Z,8.48
2018-04-17T03:55:16.216Z,8.47
2018-04-17T03:56:16.460Z,8.45
2018-04-17T03:57:16.698Z,8.52
2018-04-17T03:58:16.938Z,8.45
2018-04-17T03:59:17.182Z,8.50
2018-04-17T04:00:17.425Z,8.66
2018-04-17T04:01:17.669Z,8.68
2018-04-17T04:02:17.911Z,8.73
2018-04-17T04:03:18.157Z,8.79
2018-04-17T04:04:18.397Z,8.68
2018-04-17T04:05:18.639Z,8.73
2018-04-17T04:06:18.880Z,8.73
2018-04-17T04:07:19.124Z,8.63
2018-04-17T04:08:19.364Z,8.53
2018-04-17T04:09:19.603Z,8.41
2018-04-17T04:10:19.844Z,8.50
2018-04-17T04:11:20.088Z,8.47
2018-04-17T04:12:20.327Z,8.52
2018-04-17T04:13:20.567Z,8.47
2018-04-17T04:14:20.810Z,8.52
2018-04-17T04:15:21.053Z,8.40
2018-04-17T04:16:21.295Z,8.36
2018-04-17T04:17:21.535Z,8.38
2018-04-17T04:18:21.778Z,8.34
2018-04-17T04:19:22.018Z,8.23
2018-04-17T04:20:22.258Z,8.33
2018-04-17T04:21:22.498Z,8.23
2018-04-17T04:22:22.738Z,8.16
2018-04-17T04:23:22.981Z,8.18
2018-04-17T04:24:23.224Z,8.20
2018-04-17T04:25:23.463Z,8.18
2018-04-17T04:26:23.702Z,8.11
2018-04-17T04:27:23.946Z,8.25
2018-04-17T04:28:24.183Z,8.22
2018-04-17T04:29:24.421Z,8.15
2018-04-17T04:30:24.670Z,8.22
2018-04-17T04:31:24.912Z,8.26
2018-04-17T04:32:25.153Z,8.26
2018-04-17T04:33:25.400Z,8.30
2018-04-17T04:34:25.635Z,8.30
2018-04-17T04:35:25.876Z,8.33
2018-04-17T04:36:26.121Z,8.22
2018-04-17T04:37:26.357Z,8.25
2018-04-17T04:38:26.598Z,8.26
2018-04-17T04:39:26.838Z,8.22
2018-04-17T04:40:27.069Z,8.26
2018-04-17T04:41:27.311Z,8.26
2018-04-17T04:42:27.555Z,8.43
2018-04-17T04:43:27.796Z,8.40
2018-04-17T04:44:28.035Z,8.48
2018-04-17T04:45:28.277Z,8.52
2018-04-17T04:46:28.514Z,8.68
2018-04-17T04:47:28.756Z,8.65
2018-04-17T04:48:28.997Z,8.68
2018-04-17T04:49:29.239Z,8.61
2018-04-17T04:50:29.477Z,8.53
2018-04-17T04:51:29.718Z,8.58
2018-04-17T04:52:29.957Z,8.53
2018-04-17T04:53:30.197Z,8.48
2018-04-17T04:54:30.436Z,8.44
2018-04-17T04:55:30.679Z,8.44
2018-04-17T04:56:30.917Z,8.36
2018-04-17T04:57:31.158Z,8.36
2018-04-17T04:58:31.397Z,8.36
2018-04-17T04:59:31.638Z,8.26
2018-04-17T05:00:31.876Z,8.18
2018-04-17T05:01:32.117Z,8.20
2018-04-17T05:02:32.359Z,8.16
2018-04-17T05:03:32.598Z,8.16
2018-04-17T05:04:32.839Z,8.22
2018-04-17T05:05:33.084Z,8.34
2018-04-17T05:06:33.356Z,8.22
2018-04-17T05:07:33.599Z,8.23
2018-04-17T05:08:33.842Z,8.20
2018-04-17T05:09:34.082Z,8.28
2018-04-17T05:10:34.320Z,8.33
2018-04-17T05:11:34.561Z,8.37
2018-04-17T05:12:34.806Z,8.41
2018-04-17T05:13:35.045Z,8.59
2018-04-17T05:14:35.531Z,8.70
2018-04-17T05:15:35.533Z,8.73
2018-04-17T05:16:35.772Z,8.79
2018-04-17T05:17:36.022Z,8.81
2018-04-17T05:18:36.255Z,8.86
2018-04-17T05:19:36.511Z,8.91
2018-04-17T05:20:36.734Z,8.89
2018-04-17T05:21:36.975Z,8.96
2018-04-17T05:22:37.215Z,8.94
2018-04-17T05:23:37.455Z,8.94
2018-04-17T05:24:37.694Z,9.01
2018-04-17T05:25:37.933Z,8.91
2018-04-17T05:26:38.173Z,8.92
2018-04-17T05:27:38.413Z,9.01
2018-04-17T05:28:38.652Z,8.91
2018-04-17T05:29:38.893Z,9.13
2018-04-17T05:30:39.131Z,9.04
2018-04-17T05:31:39.374Z,9.10
2018-04-17T05:32:39.613Z,9.24
2018-04-17T05:33:39.853Z,9.14
2018-04-17T05:34:40.092Z,9.26
2018-04-17T05:35:40.331Z,9.31
2018-04-17T05:36:40.573Z,9.29
2018-04-17T05:37:40.814Z,9.40
2018-04-17T05:38:41.053Z,9.48
2018-04-17T05:39:41.295Z,9.60
2018-04-17T05:40:41.536Z,9.68
2018-04-17T05:41:41.775Z,9.75
2018-04-17T05:42:42.018Z,9.75
2018-04-17T05:43:42.257Z,9.89
2018-04-17T05:44:42.499Z,9.91
2018-04-17T05:45:42.739Z,9.97
2018-04-17T05:46:42.980Z,10.09
2018-04-17T05:47:43.222Z,10.18
2018-04-17T05:48:43.462Z,10.36
2018-04-17T05:49:43.706Z,10.47
2018-04-17T05:50:43.947Z,10.48
2018-04-17T05:51:44.185Z,10.64
2018-04-17T05:52:44.430Z,10.67
2018-04-17T05:53:44.670Z,10.73
2018-04-17T05:54:44.910Z,10.61
2018-04-17T05:55:45.161Z,10.74
2018-04-17T05:56:45.393Z,10.85
2018-04-17T05:57:45.636Z,10.84
2018-04-17T05:58:45.877Z,10.82
2018-04-17T05:59:46.120Z,10.96
2018-04-17T06:00:46.361Z,10.94
2018-04-17T06:01:46.604Z,10.91
2018-04-17T06:02:46.844Z,10.91
2018-04-17T06:03:47.090Z,11.00
2018-04-17T06:04:47.325Z,11.14
2018-04-17T06:05:47.568Z,11.00
2018-04-17T06:06:47.808Z,11.04
2018-04-17T06:07:48.053Z,11.22
2018-04-17T06:08:48.293Z,11.19
2018-04-17T06:09:48.535Z,11.22
2018-04-17T06:10:48.777Z,11.24
2018-04-17T06:11:49.020Z,11.32
2018-04-17T06:12:49.259Z,11.39
2018-04-17T06:13:49.503Z,11.51
2018-04-17T06:14:49.745Z,11.55
2018-04-17T06:15:49.989Z,11.72
2018-04-17T06:16:50.227Z,11.83
2018-04-17T06:17:50.468Z,11.96
2018-04-17T06:18:50.712Z,12.10
2018-04-17T06:19:50.952Z,12.16
2018-04-17T06:20:51.194Z,12.34
2018-04-17T06:21:51.437Z,12.41
2018-04-17T06:22:51.679Z,12.46
2018-04-17T06:23:51.924Z,12.57
2018-04-17T06:24:52.168Z,12.71
2018-04-17T06:25:52.411Z,12.90
2018-04-17T06:26:52.656Z,13.05
2018-04-17T06:27:52.897Z,13.08
2018-04-17T06:28:53.140Z,13.30
2018-04-17T06:29:53.383Z,13.32
2018-04-17T06:30:53.627Z,13.26
2018-04-17T06:31:53.868Z,13.36
2018-04-17T06:32:54.112Z,13.60
2018-04-17T06:33:54.354Z,13.91
2018-04-17T06:34:54.597Z,13.87
2018-04-17T06:35:54.841Z,13.79
2018-04-17T06:36:55.084Z,13.78
2018-04-17T06:37:55.327Z,15.07
2018-04-17T06:38:55.569Z,15.60
2018-04-17T06:39:55.815Z,16.12
2018-04-17T06:40:56.057Z,16.94
2018-04-17T06:41:56.312Z,17.58
2018-04-17T06:42:56.543Z,18.10
2018-04-17T06:43:56.788Z,18.60
2018-04-17T06:44:57.033Z,18.87
2018-04-17T06:45:57.277Z,18.98
2018-04-17T06:46:57.528Z,18.02
2018-04-17T06:47:57.768Z,18.45
2018-04-17T06:48:58.018Z,18.90
2018-04-17T06:49:58.263Z,19.26
2018-04-17T06:50:58.501Z,19.14
2018-04-17T06:51:58.746Z,18.20
2018-04-17T06:52:58.992Z,18.67
2018-04-17T06:53:59.238Z,19.18
2018-04-17T06:54:59.488Z,19.46
2018-04-17T06:55:59.727Z,19.80
2018-04-17T06:56:59.972Z,19.71
2018-04-17T06:58:00.268Z,19.86
2018-04-17T06:59:00.463Z,19.39
2018-04-17T07:00:00.709Z,18.69
2018-04-17T07:01:00.955Z,19.33
2018-04-17T07:02:01.201Z,19.81
2018-04-17T07:03:01.448Z,20.36
2018-04-17T07:04:01.695Z,20.82
2018-04-17T07:05:01.940Z,20.70
2018-04-17T07:06:02.189Z,20.89
2018-04-17T07:07:02.433Z,21.10
2018-04-17T07:08:02.680Z,21.34
2018-04-17T07:09:02.931Z,21.28
2018-04-17T07:10:03.173Z,21.61
2018-04-17T07:11:03.422Z,21.58
2018-04-17T07:12:03.673Z,21.64
2018-04-17T07:13:03.923Z,21.79
2018-04-17T07:14:04.169Z,22.09
2018-04-17T07:15:04.411Z,22.20
2018-04-17T07:16:04.658Z,22.39
2018-04-17T07:17:04.911Z,22.51
2018-04-17T07:18:05.152Z,22.42
2018-04-17T07:19:05.400Z,22.37
2018-04-17T07:20:05.648Z,22.62
2018-04-17T07:21:05.895Z,22.77
2018-04-17T07:22:06.134Z,22.77
2018-04-17T07:23:06.389Z,23.01
2018-04-17T07:24:06.634Z,23.13
2018-04-17T07:25:06.881Z,23.22
2018-04-17T07:26:07.133Z,23.36
2018-04-17T07:27:07.382Z,23.47
2018-04-17T07:28:07.628Z,23.63
2018-04-17T07:29:07.877Z,23.33
2018-04-17T07:30:08.128Z,23.32
2018-04-17T07:31:08.375Z,23.47
2018-04-17T07:32:08.624Z,23.65
2018-04-17T07:33:08.874Z,23.93
2018-04-17T07:34:09.123Z,24.20
2018-04-17T07:35:09.371Z,24.31
2018-04-17T07:36:09.622Z,24.13
2018-04-17T07:37:09.871Z,24.09
2018-04-17T07:38:10.119Z,24.61
2018-04-17T07:39:10.370Z,24.76
2018-04-17T07:40:10.621Z,24.78
2018-04-17T07:41:10.870Z,25.05
2018-04-17T07:42:11.122Z,24.85
2018-04-17T07:43:11.372Z,24.93
2018-04-17T07:44:11.626Z,24.40
2018-04-17T07:45:11.871Z,24.22
2018-04-17T07:46:12.122Z,23.61
2018-04-17T07:47:12.374Z,23.54
2018-04-17T07:48:12.624Z,23.65
2018-04-17T07:49:12.875Z,23.84
2018-04-17T07:50:13.128Z,23.27
2018-04-17T07:51:13.376Z,22.94
2018-04-17T07:52:13.627Z,22.73
2018-04-17T07:53:13.877Z,22.82
2018-04-17T07:54:14.128Z,22.36
2018-04-17T07:55:14.380Z,21.80
2018-04-17T07:56:14.640Z,22.02
2018-04-17T07:57:14.884Z,20.95
2018-04-17T07:58:15.132Z,20.70
2018-04-17T07:59:15.383Z,19.95
2018-04-17T08:00:15.634Z,19.28
2018-04-17T08:01:15.884Z,18.73
2018-04-17T08:02:16.136Z,17.96
2018-04-17T08:03:16.387Z,17.62
2018-04-17T08:04:16.638Z,17.00
2018-04-17T08:05:16.889Z,16.63
2018-04-17T08:06:17.139Z,17.16
2018-04-17T08:07:17.387Z,18.42
2018-04-17T08:08:17.667Z,19.33
2018-04-17T08:09:17.888Z,19.99
2018-04-17T08:10:18.135Z,19.26
2018-04-17T08:11:18.384Z,18.73
2018-04-17T08:12:18.634Z,17.99
2018-04-17T08:13:18.883Z,18.12
2018-04-17T08:14:19.134Z,19.40
2018-04-17T08:15:19.386Z,20.16
2018-04-17T08:16:19.634Z,20.57
2018-04-17T08:17:19.888Z,21.86
2018-04-17T08:18:20.135Z,21.74
2018-04-17T08:19:20.382Z,21.40
2018-04-17T08:20:20.631Z,22.49
2018-04-17T08:21:20.880Z,23.46
2018-04-17T08:22:21.129Z,24.30
2018-04-17T08:23:21.380Z,24.98
2018-04-17T08:24:21.628Z,25.00
2018-04-17T08:25:21.878Z,25.21
2018-04-17T08:26:22.128Z,25.38
2018-04-17T08:27:22.378Z,25.76
2018-04-17T08:28:22.629Z,25.50
2018-04-17T08:29:22.880Z,26.10
2018-04-17T08:30:23.132Z,25.92
2018-04-17T08:31:23.387Z,26.51
2018-04-17T08:32:23.636Z,26.80
2018-04-17T08:33:23.892Z,26.23
2018-04-17T08:34:24.140Z,27.04
2018-04-17T08:35:24.392Z,27.39
2018-04-17T08:36:24.646Z,27.79
2018-04-17T08:37:24.896Z,27.99
2018-04-17T08:38:25.150Z,27.87
2018-04-17T08:39:25.403Z,27.99
2018-04-17T08:40:25.655Z,27.84
2018-04-17T08:41:25.912Z,27.99
2018-04-17T08:42:26.169Z,27.07
2018-04-17T08:43:26.421Z,27.09
2018-04-17T08:44:26.676Z,27.78
2018-04-17T08:45:26.929Z,27.74
2018-04-17T08:46:27.183Z,26.51
2018-04-17T08:47:27.436Z,27.00
2018-04-17T08:48:27.691Z,26.95
2018-04-17T08:49:27.944Z,27.66
2018-04-17T08:50:28.198Z,28.31
2018-04-17T08:51:28.453Z,28.41
2018-04-17T08:52:28.706Z,28.18
2018-04-17T08:53:28.962Z,28.24
2018-04-17T08:54:29.229Z,28.40
2018-04-17T08:55:29.470Z,27.36
2018-04-17T08:56:29.727Z,28.04
2018-04-17T08:57:29.980Z,28.58
2018-04-17T08:58:30.236Z,28.76
2018-04-17T08:59:30.495Z,29.18
2018-04-17T09:00:30.751Z,28.77
2018-04-17T09:01:31.005Z,28.19
2018-04-17T09:02:31.261Z,27.99
2018-04-17T09:03:31.517Z,27.77
2018-04-17T09:04:31.774Z,28.62
2018-04-17T09:05:32.028Z,28.27
2018-04-17T09:06:32.288Z,27.90
2018-04-17T09:07:32.540Z,27.00
2018-04-17T09:08:32.796Z,27.43
2018-04-17T09:09:33.052Z,28.27
2018-04-17T09:10:33.310Z,28.55
2018-04-17T09:11:33.566Z,29.14
2018-04-17T09:12:33.822Z,29.46
2018-04-17T09:13:34.081Z,29.67
2018-04-17T09:14:34.334Z,30.24
2018-04-17T09:15:34.594Z,30.31
2018-04-17T09:16:34.850Z,30.53
2018-04-17T09:17:35.106Z,30.86
2018-04-17T09:18:35.365Z,30.84
2018-04-17T09:19:35.618Z,30.46
2018-04-17T09:20:35.878Z,30.47
2018-04-17T09:21:36.136Z,29.95
2018-04-17T09:22:36.395Z,30.47
2018-04-17T09:23:36.648Z,30.32
2018-04-17T09:24:36.906Z,30.49
2018-04-17T09:25:37.165Z,30.39
2018-04-17T09:26:37.422Z,30.23
2018-04-17T09:27:37.695Z,30.20
2018-04-17T09:28:37.940Z,30.37
2018-04-17T09:29:38.197Z,30.22
2018-04-17T09:30:38.457Z,30.27
2018-04-17T09:31:38.715Z,30.92
2018-04-17T09:32:39.027Z,31.29
2018-04-17T09:33:39.234Z,31.35
2018-04-17T09:34:39.489Z,30.24
2018-04-17T09:35:39.747Z,28.76
2018-04-17T09:36:40.006Z,26.84
2018-04-17T09:37:40.264Z,27.22
2018-04-17T09:38:40.522Z,27.74
2018-04-17T09:39:40.783Z,28.52
2018-04-17T09:40:41.038Z,28.54
2018-04-17T09:41:41.297Z,28.68
2018-04-17T09:42:41.556Z,28.55
2018-04-17T09:43:41.804Z,29.12
2018-04-17T09:44:42.063Z,29.71
2018-04-17T09:45:42.320Z,30.42
2018-04-17T09:46:42.579Z,30.27
2018-04-17T09:47:42.836Z,30.79
2018-04-17T09:48:43.094Z,31.31
2018-04-17T09:49:43.351Z,31.09
2018-04-17T09:50:43.611Z,31.07
2018-04-17T09:51:43.868Z,30.99
2018-04-17T09:52:44.134Z,30.92
2018-04-17T09:53:44.389Z,30.73
2018-04-17T09:54:44.650Z,31.07
2018-04-17T09:55:44.939Z,31.17
2018-04-17T09:56:45.163Z,31.28
2018-04-17T09:57:45.427Z,31.70
2018-04-17T09:58:45.683Z,31.69
2018-04-17T09:59:45.940Z,31.85
2018-04-17T10:00:46.204Z,31.80
2018-04-17T10:01:46.465Z,30.88
2018-04-17T10:02:46.718Z,30.10
2018-04-17T10:03:46.976Z,30.83
2018-04-17T10:04:47.240Z,31.32
2018-04-17T10:05:47.496Z,30.69
2018-04-17T10:06:47.754Z,29.60
2018-04-17T10:07:48.014Z,30.35
2018-04-17T10:08:48.269Z,30.84
2018-04-17T10:09:48.531Z,31.38
2018-04-17T10:10:48.792Z,31.46
2018-04-17T10:11:49.051Z,31.56
2018-04-17T10:12:49.311Z,31.62
2018-04-17T10:13:49.570Z,31.81
2018-04-17T10:14:49.828Z,31.63
2018-04-17T10:15:50.088Z,31.61
2018-04-17T10:16:50.347Z,31.56
2018-04-17T10:17:50.607Z,30.88
2018-04-17T10:18:50.868Z,29.43
2018-04-17T10:19:51.128Z,28.83
2018-04-17T10:20:51.388Z,29.36
2018-04-17T10:21:51.647Z,29.89
2018-04-17T10:22:51.908Z,29.95
2018-04-17T10:23:52.167Z,30.67
2018-04-17T10:24:52.428Z,30.61
2018-04-17T10:25:52.687Z,30.17
2018-04-17T10:26:52.947Z,29.37
2018-04-17T10:27:53.206Z,28.62
2018-04-17T10:28:53.465Z,28.64
2018-04-17T10:29:53.772Z,26.40
2018-04-17T10:30:53.985Z,25.39
2018-04-17T10:31:54.245Z,26.18
2018-04-17T10:32:54.504Z,26.57
2018-04-17T10:33:54.763Z,25.73
2018-04-17T10:34:55.022Z,27.10
2018-04-17T10:35:55.281Z,28.48
2018-04-17T10:36:55.540Z,29.74
2018-04-17T10:37:55.802Z,30.83
2018-04-17T10:38:56.058Z,31.54
2018-04-17T10:39:56.316Z,31.95
2018-04-17T10:40:56.577Z,30.34
2018-04-17T10:41:56.834Z,30.13
2018-04-17T10:42:57.093Z,31.26
2018-04-17T10:43:57.353Z,31.02
2018-04-17T10:44:57.612Z,31.31
2018-04-17T10:45:57.872Z,30.73
2018-04-17T10:46:58.133Z,31.34
2018-04-17T10:47:58.388Z,31.34
2018-04-17T10:48:58.648Z,30.70
2018-04-17T10:49:58.907Z,30.67
2018-04-17T10:50:59.165Z,30.57
2018-04-17T10:51:59.424Z,30.83
2018-04-17T10:52:59.684Z,31.51
2018-04-17T10:53:59.942Z,31.85
2018-04-17T10:55:00.201Z,32.03
2018-04-17T10:56:00.459Z,32.04
2018-04-17T10:57:00.719Z,31.39
2018-04-17T10:58:00.979Z,31.13
2018-04-17T10:59:01.237Z,31.53
2018-04-17T11:00:01.499Z,30.77
2018-04-17T11:01:01.757Z,30.82
2018-04-17T11:02:02.016Z,31.28
2018-04-17T11:03:02.276Z,31.68
2018-04-17T11:04:02.549Z,32.04
2018-04-17T11:05:02.796Z,32.52
2018-04-17T11:06:03.055Z,32.77
2018-04-17T11:07:03.316Z,33.16
2018-04-17T11:08:03.575Z,32.63
2018-04-17T11:09:03.836Z,32.56
2018-04-17T11:10:04.096Z,31.95
2018-04-17T11:11:04.355Z,31.63
2018-04-17T11:12:04.618Z,31.72
2018-04-17T11:13:04.888Z,31.75
2018-04-17T11:14:05.138Z,31.34
2018-04-17T11:15:05.402Z,31.39
2018-04-17T11:16:05.663Z,31.06
2018-04-17T11:17:05.925Z,31.92
2018-04-17T11:18:06.187Z,30.34
2018-04-17T11:19:06.450Z,31.54
2018-04-17T11:20:06.714Z,31.92
2018-04-17T11:21:06.976Z,32.30
2018-04-17T11:22:07.239Z,32.70
2018-04-17T11:23:07.500Z,32.63
2018-04-17T11:24:07.757Z,32.51
2018-04-17T11:25:08.016Z,32.07
2018-04-17T11:26:08.276Z,32.32
2018-04-17T11:27:08.535Z,32.69
2018-04-17T11:28:08.794Z,33.26
2018-04-17T11:29:09.114Z,33.39
2018-04-17T11:30:09.319Z,33.87
2018-04-17T11:31:09.576Z,34.17
2018-04-17T11:32:09.837Z,33.66
2018-04-17T11:33:10.097Z,33.11
2018-04-17T11:34:10.357Z,32.19
2018-04-17T11:35:10.618Z,32.55
2018-04-17T11:36:10.877Z,32.84
2018-04-17T11:37:11.137Z,32.69
2018-04-17T11:38:11.403Z,32.65
2018-04-17T11:39:11.659Z,31.80
2018-04-17T11:40:11.916Z,32.14
2018-04-17T11:41:12.178Z,32.15
2018-04-17T11:42:12.438Z,31.84
2018-04-17T11:43:12.703Z,31.29
2018-04-17T11:44:12.958Z,30.83
2018-04-17T11:45:13.219Z,31.13
2018-04-17T11:46:13.480Z,31.16
2018-04-17T11:47:13.739Z,31.12
2018-04-17T11:48:13.999Z,32.00
2018-04-17T11:49:14.260Z,30.80
2018-04-17T11:50:14.519Z,30.17
2018-04-17T11:51:14.780Z,30.80
2018-04-17T11:52:15.040Z,30.89
2018-04-17T11:53:15.302Z,31.43
2018-04-17T11:54:15.558Z,32.28
2018-04-17T11:55:15.818Z,33.14
2018-04-17T11:56:16.078Z,33.04
2018-04-17T11:57:16.340Z,33.00
2018-04-17T11:58:16.598Z,32.60
2018-04-17T11:59:16.862Z,33.16
2018-04-17T12:00:17.125Z,33.51
2018-04-17T12:01:17.381Z,33.78
2018-04-17T12:02:17.676Z,33.90
2018-04-17T12:03:17.900Z,33.94
2018-04-17T12:04:18.160Z,33.26
2018-04-17T12:05:18.420Z,29.82
2018-04-17T12:06:18.681Z,27.78
2018-04-17T12:07:18.940Z,28.24
2018-04-17T12:08:19.200Z,27.54
2018-04-17T12:09:19.462Z,27.14
2018-04-17T12:10:19.720Z,27.75
2018-04-17T12:11:19.979Z,27.57
2018-04-17T12:12:20.240Z,28.34
2018-04-17T12:13:20.499Z,26.95
2018-04-17T12:14:20.759Z,27.78
2018-04-17T12:15:21.020Z,29.23
2018-04-17T12:16:21.284Z,29.57
2018-04-17T12:17:21.536Z,29.94
2018-04-17T12:18:21.792Z,30.47
2018-04-17T12:19:22.048Z,31.10
2018-04-17T12:20:22.342Z,31.85
2018-04-17T12:21:22.569Z,32.08
2018-04-17T12:22:22.831Z,32.29
2018-04-17T12:23:23.084Z,32.52
2018-04-17T12:24:23.343Z,31.61
2018-04-17T12:25:23.601Z,28.89
2018-04-17T12:26:23.860Z,27.27
2018-04-17T12:27:24.119Z,27.90
2018-04-17T12:28:24.380Z,29.00
2018-04-17T12:29:24.639Z,28.67
2018-04-17T12:30:24.898Z,28.39
2018-04-17T12:31:25.157Z,27.85
2018-04-17T12:32:25.415Z,26.72
2018-04-17T12:33:25.675Z,27.44
2018-04-17T12:34:25.954Z,27.99
2018-04-17T12:35:26.221Z,25.82
2018-04-17T12:36:26.478Z,25.73
2018-04-17T12:37:26.736Z,26.84
2018-04-17T12:38:26.980Z,28.40
2018-04-17T12:39:27.266Z,29.43
2018-04-17T12:40:27.515Z,29.63
2018-04-17T12:41:27.773Z,29.19
2018-04-17T12:42:28.022Z,29.95
2018-04-17T12:43:28.277Z,30.86
2018-04-17T12:44:28.538Z,31.63
2018-04-17T12:45:28.799Z,32.22
2018-04-17T12:46:29.060Z,32.84
2018-04-17T12:47:29.311Z,31.38
2018-04-17T12:48:29.571Z,29.19
2018-04-17T12:49:29.830Z,29.26
2018-04-17T12:50:30.092Z,29.28
2018-04-17T12:51:30.349Z,30.10
2018-04-17T12:52:30.608Z,31.09
2018-04-17T12:53:30.867Z,30.70
2018-04-17T12:54:31.123Z,29.00
2018-04-17T12:55:31.382Z,26.01
2018-04-17T12:56:31.640Z,27.37
2018-04-17T12:57:31.897Z,28.25
2018-04-17T12:58:32.156Z,28.81
2018-04-17T12:59:32.414Z,29.61
2018-04-17T13:00:32.677Z,30.37
2018-04-17T13:01:32.930Z,30.94
2018-04-17T13:02:33.185Z,30.17
2018-04-17T13:03:33.445Z,27.75
2018-04-17T13:04:33.702Z,26.60
2018-04-17T13:05:33.959Z,24.46
2018-04-17T13:06:34.219Z,24.30